createdAt,value
2019-04-18T00:02:05.456Z,10.30
2019-04-18T00:04:41.836Z,10.30
2019-04-18T00:07:15.399Z,10.20
2019-04-18T00:09:49.115Z,10.10
2019-04-18T00:12:23.452Z,10.10
2019-04-18T00:14:56.632Z,10.10
2019-04-18T00:17:31.122Z,10.10
2019-04-18T00:20:05.760Z,10.00
2019-04-18T00:22:39.277Z,10.00
2019-04-18T00:25:12.976Z,10.00
2019-04-18T00:27:48.287Z,10.00
2019-04-18T00:30:20.816Z,9.90
2019-04-18T00:32:54.587Z,9.90
2019-04-18T00:35:28.211Z,9.80
2019-04-18T00:38:02.644Z,9.80
2019-04-18T00:40:36.369Z,9.70
2019-04-18T00:43:10.111Z,9.70
2019-04-18T00:45:44.538Z,9.70
2019-04-18T00:48:17.462Z,9.70
2019-04-18T00:50:51.973Z,9.70
2019-04-18T00:53:25.653Z,9.60
2019-04-18T00:56:04.507Z,9.60
2019-04-18T00:58:32.840Z,9.60
2019-04-18T01:01:12.925Z,9.60
2019-04-18T01:03:40.341Z,9.50
2019-04-18T01:06:16.568Z,9.50
2019-04-18T01:08:48.487Z,9.50
2019-04-18T01:11:22.139Z,9.40
2019-04-18T01:13:55.705Z,9.40
2019-04-18T01:16:29.529Z,9.40
2019-04-18T01:19:03.109Z,9.40
2019-04-18T01:21:38.301Z,9.40
2019-04-18T01:24:11.135Z,9.30
2019-04-18T01:26:46.119Z,9.30
2019-04-18T01:29:19.251Z,9.20
2019-04-18T01:31:54.302Z,9.20
2019-04-18T01:34:40.898Z,9.20
2019-04-18T01:37:03.205Z,9.20
2019-04-18T01:39:36.634Z,9.20
2019-04-18T01:42:13.998Z,9.20
2019-04-18T01:44:52.682Z,9.20
2019-04-18T01:47:28.072Z,9.10
2019-04-18T01:50:00.893Z,9.10
2019-04-18T01:52:34.488Z,9.10
2019-04-18T01:55:08.358Z,9.10
2019-04-18T01:57:41.739Z,9.10
2019-04-18T02:00:18.940Z,9.10
2019-04-18T02:02:52.534Z,9.10
2019-04-18T02:05:27.951Z,9.00
2019-04-18T02:08:01.242Z,9.00
2019-04-18T02:10:34.927Z,9.00
2019-04-18T02:13:09.432Z,9.00
2019-04-18T02:15:43.068Z,8.90
2019-04-18T02:18:21.474Z,8.90
2019-04-18T02:20:51.262Z,8.90
2019-04-18T02:23:25.000Z,8.80
2019-04-18T02:25:58.551Z,8.80
2019-04-18T02:28:32.181Z,8.90
2019-04-18T02:31:05.959Z,8.90
2019-04-18T02:33:42.180Z,8.90
2019-04-18T02:36:13.407Z,8.90
2019-04-18T02:38:49.238Z,8.90
2019-04-18T02:41:20.531Z,8.90
2019-04-18T02:43:54.832Z,8.80
2019-04-18T02:46:27.823Z,8.80
2019-04-18T02:49:01.634Z,8.80
2019-04-18T02:51:35.174Z,8.80
2019-04-18T02:54:12.583Z,8.80
2019-04-18T02:56:42.399Z,8.80
2019-04-18T03:02:13.718Z,8.70
2019-04-18T03:04:49.059Z,8.70
2019-04-18T03:07:23.328Z,8.60
2019-04-18T03:09:56.540Z,8.60
2019-04-18T03:12:30.070Z,8.60
2019-04-18T03:15:03.660Z,8.60
2019-04-18T03:17:38.023Z,8.60
2019-04-18T03:20:11.925Z,8.60
2019-04-18T03:22:45.399Z,8.60
2019-04-18T03:25:22.332Z,8.60
2019-04-18T03:27:52.672Z,8.60
2019-04-18T03:30:30.055Z,8.50
2019-04-18T03:33:00.855Z,8.50
2019-04-18T03:35:47.660Z,8.50
2019-04-18T03:38:12.361Z,8.50
2019-04-18T03:40:42.512Z,8.50
2019-04-18T03:43:16.181Z,8.50
2019-04-18T03:45:55.044Z,8.50
2019-04-18T03:48:23.407Z,8.50
2019-04-18T03:50:57.243Z,8.50
2019-04-18T03:53:32.842Z,8.50
2019-04-18T03:56:04.396Z,8.40
2019-04-18T03:58:38.995Z,8.40
2019-04-18T04:01:11.528Z,8.50
2019-04-18T04:03:47.614Z,8.50
2019-04-18T04:06:20.861Z,8.50
2019-04-18T04:08:52.592Z,8.50
2019-04-18T04:11:26.361Z,8.60
2019-04-18T04:14:02.019Z,8.40
2019-04-18T04:16:33.651Z,8.40
2019-04-18T04:19:11.312Z,8.40
2019-04-18T04:21:44.543Z,8.40
2019-04-18T04:24:19.108Z,8.40
2019-04-18T04:26:53.581Z,8.40
2019-04-18T04:29:27.139Z,8.30
2019-04-18T04:32:00.691Z,8.40
2019-04-18T04:34:34.411Z,8.30
2019-04-18T04:37:09.181Z,8.30
2019-04-18T04:39:42.819Z,8.30
2019-04-18T04:42:18.899Z,8.40
2019-04-18T04:44:50.112Z,8.30
2019-04-18T04:47:36.698Z,8.30
2019-04-18T04:50:27.104Z,8.30
2019-04-18T04:53:00.868Z,8.30
2019-04-18T04:55:38.167Z,8.40
2019-04-18T04:58:16.849Z,8.50
2019-04-18T05:00:57.126Z,8.40
2019-04-18T05:03:29.391Z,8.50
2019-04-18T05:06:03.536Z,8.50
2019-04-18T05:08:38.103Z,8.60
2019-04-18T05:11:11.831Z,8.60
2019-04-18T05:13:45.494Z,8.70
2019-04-18T05:16:19.188Z,9.00
2019-04-18T05:18:53.204Z,9.00
2019-04-18T05:21:27.005Z,9.20
2019-04-18T05:24:00.857Z,9.40
2019-04-18T05:26:35.257Z,10.00
2019-04-18T05:29:13.589Z,10.20
2019-04-18T05:31:43.504Z,10.20
2019-04-18T05:34:18.445Z,10.30
2019-04-18T05:36:56.232Z,10.10
2019-04-18T05:39:30.221Z,9.70
2019-04-18T05:41:58.272Z,9.60
2019-04-18T05:44:36.733Z,9.40
2019-04-18T05:47:06.182Z,9.40
2019-04-18T05:49:42.533Z,9.40
2019-04-18T05:52:16.292Z,9.50
2019-04-18T05:54:49.816Z,9.60
2019-04-18T05:57:23.538Z,9.80
2019-04-18T06:00:12.104Z,9.90
2019-04-18T06:03:06.538Z,10.10
2019-04-18T06:05:43.821Z,10.50
2019-04-18T06:08:17.488Z,10.50
2019-04-18T06:10:51.503Z,10.60
2019-04-18T06:13:25.710Z,10.70
2019-04-18T06:15:59.335Z,10.70
2019-04-18T06:18:39.112Z,10.80
2019-04-18T06:21:13.958Z,10.80
2019-04-18T06:23:47.737Z,10.80
2019-04-18T06:26:21.307Z,10.90
2019-04-18T06:28:56.999Z,11.00
2019-04-18T06:31:31.218Z,11.10
2019-04-18T06:34:09.663Z,11.20
2019-04-18T06:36:38.696Z,11.30
2019-04-18T06:39:12.277Z,11.40
2019-04-18T06:42:00.839Z,11.50
2019-04-18T06:44:20.306Z,11.70
2019-04-18T06:46:54.202Z,11.80
2019-04-18T06:49:32.923Z,11.90
2019-04-18T06:52:07.029Z,12.00
2019-04-18T06:54:40.402Z,12.10
2019-04-18T06:57:14.027Z,12.20
2019-04-18T06:59:48.559Z,12.40
2019-04-18T07:02:22.295Z,12.40
2019-04-18T07:04:57.942Z,12.50
2019-04-18T07:07:38.230Z,12.50
2019-04-18T07:10:19.150Z,12.60
2019-04-18T07:12:53.024Z,12.70
2019-04-18T07:15:26.569Z,12.90
2019-04-18T07:18:00.159Z,13.00
2019-04-18T07:20:34.344Z,13.00
2019-04-18T07:23:09.023Z,13.20
2019-04-18T07:25:42.652Z,13.30
2019-04-18T07:28:16.203Z,13.40
2019-04-18T07:30:49.747Z,13.40
2019-04-18T07:33:23.452Z,13.50
2019-04-18T07:35:57.056Z,13.70
2019-04-18T07:38:33.816Z,13.70
2019-04-18T07:41:04.683Z,13.70
2019-04-18T07:43:39.257Z,13.80
2019-04-18T07:46:12.984Z,13.80
2019-04-18T07:48:46.549Z,14.00
2019-04-18T07:51:20.303Z,14.00
2019-04-18T07:53:53.859Z,14.10
2019-04-18T07:56:27.647Z,14.20
2019-04-18T07:59:06.289Z,14.30
2019-04-18T08:01:34.850Z,14.40
2019-04-18T08:04:13.649Z,14.50
2019-04-18T08:06:41.899Z,14.60
2019-04-18T08:09:16.576Z,14.80
2019-04-18T08:11:49.984Z,14.80
2019-04-18T08:14:24.342Z,15.00
2019-04-18T08:16:58.050Z,15.00
2019-04-18T08:19:31.934Z,15.20
2019-04-18T08:22:05.712Z,15.40
2019-04-18T08:24:40.247Z,16.30
2019-04-18T08:27:13.644Z,18.70
2019-04-18T08:29:48.146Z,19.80
2019-04-18T08:32:21.779Z,19.80
2019-04-18T08:34:55.456Z,20.50
2019-04-18T08:37:28.972Z,21.30
2019-04-18T08:40:08.521Z,21.80
2019-04-18T08:42:43.165Z,22.30
2019-04-18T08:45:17.567Z,22.50
2019-04-18T08:47:51.402Z,22.40
2019-04-18T08:50:25.113Z,22.70
2019-04-18T08:52:58.820Z,23.10
2019-04-18T08:55:34.019Z,23.50
2019-04-18T08:58:08.394Z,23.60
2019-04-18T09:00:41.550Z,23.70
2019-04-18T09:03:25.139Z,24.00
2019-04-18T09:05:49.770Z,24.20
2019-04-18T09:08:23.873Z,24.70
2019-04-18T09:10:57.116Z,24.80
2019-04-18T09:13:35.210Z,25.10
2019-04-18T09:16:04.156Z,25.20
2019-04-18T09:18:38.057Z,25.40
2019-04-18T09:21:21.002Z,25.60
2019-04-18T09:23:47.322Z,25.50
2019-04-18T09:26:21.188Z,25.30
2019-04-18T09:28:54.248Z,25.00
2019-04-18T09:31:27.810Z,25.40
2019-04-18T09:34:01.409Z,25.40
2019-04-18T09:36:35.227Z,25.50
2019-04-18T09:39:11.967Z,26.30
2019-04-18T09:41:44.060Z,26.80
2019-04-18T09:44:19.538Z,26.70
2019-04-18T09:46:51.603Z,26.40
2019-04-18T09:49:25.356Z,26.10
2019-04-18T09:51:59.590Z,26.00
2019-04-18T09:54:37.505Z,26.50
2019-04-18T09:57:06.513Z,26.70
2019-04-18T09:59:40.221Z,26.50
2019-04-18T10:02:14.731Z,27.20
2019-04-18T10:04:50.652Z,27.10
2019-04-18T10:07:22.309Z,27.20
2019-04-18T10:09:59.489Z,27.30
2019-04-18T10:12:31.919Z,27.50
2019-04-18T10:15:13.259Z,27.50
2019-04-18T10:17:38.358Z,27.40
2019-04-18T10:20:14.501Z,27.50
2019-04-18T10:22:50.010Z,27.70
2019-04-18T10:25:27.516Z,27.90
2019-04-18T10:28:03.528Z,27.40
2019-04-18T10:30:52.343Z,27.40
2019-04-18T10:33:26.728Z,26.80
2019-04-18T10:36:00.458Z,26.80
2019-04-18T10:38:34.216Z,26.80
2019-04-18T10:41:07.847Z,26.40
2019-04-18T10:43:41.471Z,26.40
2019-04-18T10:46:18.383Z,26.40
2019-04-18T10:48:48.982Z,26.40
2019-04-18T10:51:22.785Z,26.60
2019-04-18T10:53:56.544Z,26.90
2019-04-18T10:56:30.156Z,26.90
2019-04-18T10:59:03.714Z,27.30
2019-04-18T11:01:37.399Z,27.50
2019-04-18T11:04:18.015Z,27.80
2019-04-18T11:06:45.047Z,27.80
2019-04-18T11:09:19.600Z,27.70
2019-04-18T11:11:55.870Z,27.30
2019-04-18T11:14:28.419Z,27.00
2019-04-18T11:17:02.033Z,27.00
2019-04-18T11:19:35.712Z,27.10
2019-04-18T11:22:09.355Z,27.00
2019-04-18T11:24:43.180Z,27.20
2019-04-18T11:27:17.462Z,27.80
2019-04-18T11:29:51.954Z,27.70
2019-04-18T11:32:25.596Z,27.60
2019-04-18T11:34:59.173Z,27.40
2019-04-18T11:37:32.882Z,26.80
2019-04-18T11:40:06.596Z,26.40
2019-04-18T11:42:40.996Z,24.10
2019-04-18T11:45:14.660Z,24.00
2019-04-18T11:47:48.329Z,22.90
2019-04-18T11:50:21.992Z,22.50
2019-04-18T11:52:55.636Z,22.20
2019-04-18T11:55:30.221Z,22.00
2019-04-18T11:58:04.820Z,22.00
2019-04-18T12:00:54.084Z,22.00
2019-04-18T12:03:28.647Z,21.90
2019-04-18T12:06:03.050Z,22.00
2019-04-18T12:08:36.958Z,21.90
2019-04-18T12:11:11.333Z,22.10
2019-04-18T12:13:44.307Z,22.30
2019-04-18T12:16:17.901Z,22.50
2019-04-18T12:18:51.502Z,22.40
2019-04-18T12:21:25.041Z,22.10
2019-04-18T12:23:58.718Z,22.30
2019-04-18T12:26:33.129Z,22.30
2019-04-18T12:29:06.852Z,22.30
2019-04-18T12:31:40.482Z,22.30
2019-04-18T12:34:22.347Z,22.30
2019-04-18T12:36:48.034Z,22.30
2019-04-18T12:39:21.809Z,22.10
2019-04-18T12:41:55.645Z,22.10
2019-04-18T12:44:29.155Z,22.10
2019-04-18T12:47:03.519Z,22.20
2019-04-18T12:49:36.835Z,21.90
2019-04-18T12:52:15.245Z,22.20
2019-04-18T12:54:44.895Z,22.10
2019-04-18T12:57:18.456Z,22.10
2019-04-18T12:59:52.064Z,22.20
2019-04-18T13:02:30.114Z,22.30
2019-04-18T13:05:01.073Z,22.30
2019-04-18T13:07:35.667Z,22.20
2019-04-18T13:10:25.160Z,22.10
2019-04-18T13:13:00.450Z,22.10
2019-04-18T13:15:34.788Z,22.20
2019-04-18T13:18:09.016Z,22.00
2019-04-18T13:20:43.032Z,22.20
2019-04-18T13:23:16.653Z,22.20
2019-04-18T13:25:50.722Z,22.30
2019-04-18T13:28:23.975Z,22.30
2019-04-18T13:30:57.950Z,22.10
2019-04-18T13:33:32.148Z,22.30
2019-04-18T13:36:05.856Z,22.30
2019-04-18T13:38:40.166Z,22.40
2019-04-18T13:41:13.704Z,22.40
2019-04-18T13:43:47.231Z,22.50
2019-04-18T13:46:20.867Z,22.20
2019-04-18T13:48:54.459Z,22.20
2019-04-18T13:51:28.212Z,22.10
2019-04-18T13:54:06.876Z,22.20
2019-04-18T13:56:36.388Z,22.20
2019-04-18T13:59:11.130Z,22.40
2019-04-18T14:01:43.977Z,22.40
2019-04-18T14:04:17.692Z,22.50
2019-04-18T14:06:51.434Z,22.50
2019-04-18T14:09:26.572Z,22.30
2019-04-18T14:12:00.138Z,22.30
2019-04-18T14:14:33.780Z,22.30
2019-04-18T14:17:07.366Z,22.30
2019-04-18T14:19:42.122Z,21.90
2019-04-18T14:22:16.650Z,21.90
2019-04-18T14:24:50.023Z,21.90
2019-04-18T14:27:23.615Z,22.00
2019-04-18T14:29:57.395Z,22.10
2019-04-18T14:32:33.976Z,22.10
2019-04-18T14:35:04.609Z,22.20
2019-04-18T14:37:38.166Z,22.10
2019-04-18T14:40:11.959Z,22.20
2019-04-18T14:42:45.539Z,22.20
2019-04-18T14:45:19.136Z,22.20
2019-04-18T14:48:03.676Z,22.20
2019-04-18T14:50:27.392Z,22.10
2019-04-18T14:53:01.056Z,22.10
2019-04-18T14:55:34.706Z,22.10
2019-04-18T14:58:08.342Z,22.20
2019-04-18T15:00:44.145Z,22.20
2019-04-18T15:03:16.514Z,22.10
2019-04-18T15:05:50.442Z,22.10
2019-04-18T15:08:24.121Z,22.20
2019-04-18T15:10:57.839Z,22.20
2019-04-18T15:13:31.532Z,22.30
2019-04-18T15:16:05.129Z,22.20
2019-04-18T15:18:38.719Z,22.20
2019-04-18T15:21:13.244Z,22.00
2019-04-18T15:23:47.075Z,22.00
2019-04-18T15:26:20.934Z,22.10
2019-04-18T15:28:55.462Z,22.20
2019-04-18T15:31:29.267Z,22.20
2019-04-18T15:34:03.025Z,22.20
2019-04-18T15:36:36.799Z,22.00
2019-04-18T15:39:10.467Z,22.10
2019-04-18T15:41:44.282Z,22.10
2019-04-18T15:44:18.036Z,22.10
2019-04-18T15:47:10.439Z,22.00
2019-04-18T15:49:40.247Z,22.00
2019-04-18T15:52:13.851Z,22.00
2019-04-18T15:54:47.438Z,22.10
2019-04-18T15:57:21.303Z,22.00
2019-04-18T15:59:55.204Z,22.00
2019-04-18T16:02:28.804Z,22.10
2019-04-18T16:05:03.365Z,21.90
2019-04-18T16:07:36.987Z,21.90
2019-04-18T16:10:18.808Z,21.90
2019-04-18T16:12:46.327Z,21.90
2019-04-18T16:15:21.511Z,21.80
2019-04-18T16:17:55.207Z,21.70
2019-04-18T16:20:28.947Z,21.60
2019-04-18T16:23:02.626Z,21.60
2019-04-18T16:25:36.448Z,21.50
2019-04-18T16:28:10.149Z,21.50
2019-04-18T16:30:43.881Z,21.50
2019-04-18T16:33:17.697Z,21.40
2019-04-18T16:35:51.307Z,21.40
2019-04-18T16:38:25.186Z,21.40
2019-04-18T16:40:58.846Z,21.50
2019-04-18T16:43:32.457Z,21.50
2019-04-18T16:46:06.419Z,21.40
2019-04-18T16:48:40.183Z,21.40
2019-04-18T16:51:14.023Z,21.30
2019-04-18T17:02:57.956Z,21.10
2019-04-18T17:21:43.944Z,21.10
2019-04-18T17:24:17.704Z,20.60
2019-04-18T17:26:51.644Z,20.60
2019-04-18T17:29:25.293Z,20.50
2019-04-18T17:31:59.995Z,20.40
2019-04-18T17:34:42.232Z,20.40
2019-04-18T17:37:23.921Z,20.40
2019-04-18T17:39:59.637Z,20.30
2019-04-18T17:42:16.622Z,20.30
2019-04-18T17:44:57.551Z,20.20
2019-04-18T17:47:25.649Z,20.20
2019-04-18T17:50:04.975Z,20.10
2019-04-18T17:52:46.503Z,20.10
2019-04-18T17:55:26.512Z,20.10
2019-04-18T17:57:43.297Z,20.00
2019-04-18T18:00:18.827Z,20.00
2019-04-18T18:02:55.695Z,19.90
2019-04-18T18:05:30.586Z,19.90
2019-04-18T18:08:03.956Z,19.90
2019-04-18T18:10:33.231Z,19.80
2019-04-18T18:22:43.171Z,19.50
2019-04-18T18:25:14.501Z,19.50
2019-04-18T18:27:52.873Z,19.50
2019-04-18T18:30:26.477Z,19.40
2019-04-18T18:32:55.787Z,19.30
2019-04-18T18:35:37.045Z,19.30
2019-04-18T18:38:08.317Z,19.20
2019-04-18T18:40:37.752Z,19.10
2019-04-18T18:43:14.995Z,19.00
2019-04-18T18:45:44.053Z,18.90
2019-04-18T18:48:20.529Z,18.80
2019-04-18T18:50:52.067Z,18.50
2019-04-18T18:53:25.624Z,18.50
2019-04-18T18:56:01.936Z,18.40
2019-04-18T18:58:35.061Z,18.30
2019-04-18T19:01:06.448Z,18.30
2019-04-18T19:03:40.163Z,18.10
2019-04-18T19:06:19.608Z,18.10
2019-04-18T19:11:37.240Z,17.90
2019-04-18T19:14:06.082Z,17.90
2019-04-18T19:16:41.733Z,17.90
2019-04-18T19:19:03.610Z,17.80
2019-04-18T19:21:39.634Z,17.70
2019-04-18T19:24:13.597Z,17.60
2019-04-18T19:26:45.013Z,17.50
2019-04-18T19:49:01.407Z,16.60
2019-04-18T19:51:38.444Z,16.50
2019-04-18T19:54:06.010Z,16.30
2019-04-18T19:56:39.696Z,16.30
2019-04-18T19:59:13.200Z,16.20
2019-04-18T20:01:48.589Z,16.00
2019-04-18T20:04:22.401Z,16.00
2019-04-18T20:07:11.276Z,16.00
2019-04-18T20:09:41.287Z,15.90
2019-04-18T20:12:18.921Z,15.80
2019-04-18T20:14:36.816Z,15.80
2019-04-18T20:17:12.643Z,15.70
2019-04-18T20:19:44.407Z,15.60
2019-04-18T20:22:21.523Z,15.50
2019-04-18T20:24:53.479Z,15.50
2019-04-18T20:27:30.216Z,15.50
2019-04-18T20:30:01.584Z,15.50
2019-04-18T20:32:39.631Z,15.40
2019-04-18T20:35:10.748Z,15.30
2019-04-18T20:37:52.405Z,15.30
2019-04-18T20:40:35.844Z,15.30
2019-04-18T20:43:06.561Z,15.10
2019-04-18T20:45:48.939Z,15.00
2019-04-18T20:48:07.694Z,15.00
2019-04-18T20:50:39.857Z,15.00
2019-04-18T20:53:31.550Z,14.90
2019-04-18T20:55:52.022Z,14.90
2019-04-18T20:58:20.370Z,14.80
2019-04-18T21:00:47.936Z,14.80
2019-04-18T21:03:26.376Z,14.70
2019-04-18T21:05:57.248Z,14.70
2019-04-18T21:08:39.658Z,14.60
2019-04-18T21:11:04.174Z,14.60
2019-04-18T21:13:37.414Z,14.50
2019-04-18T21:35:48.708Z,14.20
2019-04-18T21:38:32.246Z,14.10
2019-04-18T21:40:56.885Z,14.10
2019-04-18T21:43:30.491Z,14.10
2019-04-18T21:46:05.736Z,14.10
2019-04-18T21:48:36.881Z,14.00
2019-04-18T21:51:13.731Z,13.90
2019-04-18T21:53:46.718Z,13.90
2019-04-18T21:56:18.585Z,13.90
2019-04-18T21:59:04.981Z,13.90
2019-04-18T22:01:38.636Z,13.90
2019-04-18T22:04:09.156Z,13.90
2019-04-18T22:06:46.694Z,13.80
2019-04-18T22:09:15.749Z,13.70
2019-04-18T22:11:54.091Z,13.70
2019-04-18T22:14:23.284Z,13.60
2019-04-18T22:16:57.792Z,13.60
2019-04-18T22:19:31.436Z,13.60
2019-04-18T22:22:05.437Z,13.50
2019-04-18T22:24:39.680Z,13.40
2019-04-18T22:27:15.225Z,13.40
2019-04-18T22:29:46.073Z,13.40
2019-04-18T22:32:21.503Z,13.40
2019-04-18T22:34:59.060Z,13.40
2019-04-18T22:37:36.009Z,13.40
2019-04-18T22:40:04.395Z,13.40
2019-04-18T22:42:35.615Z,13.30
2019-04-18T22:45:09.191Z,13.30
2019-04-18T22:47:47.551Z,13.30
2019-04-18T22:50:15.813Z,13.20
2019-04-18T22:52:49.530Z,13.20
2019-04-18T22:55:25.479Z,13.20
2019-04-18T22:57:57.447Z,13.10
2019-04-18T23:00:32.755Z,13.10
2019-04-18T23:03:04.413Z,13.10
2019-04-18T23:05:38.382Z,13.00
2019-04-18T23:08:20.209Z,13.00
2019-04-18T23:10:45.972Z,13.00
2019-04-18T23:13:23.625Z,13.00
2019-04-18T23:15:53.717Z,12.90
2019-04-18T23:18:28.274Z,12.90
2019-04-18T23:21:07.044Z,12.80
2019-04-18T23:23:35.424Z,12.80
2019-04-18T23:26:13.708Z,12.70
2019-04-18T23:28:47.988Z,12.70
2019-04-18T23:31:20.115Z,12.70
2019-04-18T23:33:54.589Z,12.70
2019-04-18T23:36:27.764Z,12.60
2019-04-18T23:39:08.169Z,12.50
2019-04-18T23:41:34.130Z,12.40
2019-04-18T23:44:11.015Z,12.40
2019-04-18T23:46:40.606Z,12.40
2019-04-18T23:49:17.969Z,12.40
2019-04-18T23:51:48.603Z,12.40
2019-04-18T23:54:28.797Z,12.40
2019-04-18T23:56:55.613Z,12.40
2019-04-18T23:59:34.725Z,12.30
